Time;durP1;ratioP1;P1;durP2;ratioP2;P2;SDS_P1;SDS_P2;PMS_P1;PMS_P2;Temp;Humidity;BMP_temperature;BMP_pressure;BME280_temperature;BME280_humidity;BME280_pressure;Samples;Min_cycle;Max_cycle;Signal;HPM_P1;HPM_P2
2022/12/02 00:01:16;;;;;;;3.63;2.72;;;;;;;8.27;98.75;101808.44;5002675;28;20036;-74
2022/12/02 00:03:42;;;;;;;5.65;2.60;;;;;;;8.29;98.19;101811.84;5034873;28;20383;-75
2022/12/02 00:06:22;;;;;;;5.13;2.30;;;;;;;8.19;98.44;101794.03;5035347;28;20179;-77
2022/12/02 00:08:48;;;;;;;3.13;2.00;;;;;;;8.28;98.53;101807.47;5019104;28;20044;-75
2022/12/02 00:11:26;;;;;;;3.45;2.15;;;;;;;8.30;98.17;101797.44;5002716;28;20033;-75
2022/12/02 00:13:52;;;;;;;4.65;2.40;;;;;;;8.27;97.85;101797.72;5035185;28;20073;-75
2022/12/02 00:16:24;;;;;;;7.40;3.95;;;;;;;8.22;97.68;101789.22;5051437;28;20065;-75
2022/12/02 00:18:50;;;;;;;6.97;2.72;;;;;;;8.29;98.19;101795.75;5018721;28;20029;-76
2022/12/02 00:21:16;;;;;;;5.18;2.45;;;;;;;8.31;97.74;101801.84;5034461;28;20025;-75
2022/12/02 00:23:42;;;;;;;5.70;3.47;;;;;;;8.30;97.34;101794.75;5002422;28;20052;-74
2022/12/02 00:26:08;;;;;;;5.40;2.80;;;;;;;8.32;97.65;101786.59;5017813;28;20471;-75
2022/12/02 00:28:33;;;;;;;6.68;3.72;;;;;;;8.27;97.81;101788.84;5002397;28;20029;-75
2022/12/02 00:30:59;;;;;;;4.88;3.10;;;;;;;8.31;97.49;101796.47;5001658;28;20582;-75
2022/12/02 00:33:25;;;;;;;4.97;2.60;;;;;;;8.31;97.63;101784.91;5018397;28;20375;-75
2022/12/02 00:35:50;;;;;;;9.60;3.08;;;;;;;8.30;96.95;101791.25;5001801;28;20043;-75
2022/12/02 00:38:16;;;;;;;7.07;3.42;;;;;;;8.28;97.51;101794.06;5034718;28;20100;-76
2022/12/02 00:40:42;;;;;;;5.68;2.83;;;;;;;8.25;97.47;101783.59;5002078;28;20376;-76
2022/12/02 00:48:36;;;;;;;5.70;2.78;;;;;;;8.23;96.97;101787.41;5034928;28;20538;-75
2022/12/02 00:51:02;;;;;;;9.30;3.88;;;;;;;8.23;97.25;101788.25;5034839;28;20121;-75
2022/12/02 00:53:28;;;;;;;6.68;2.90;;;;;;;8.22;97.00;101785.72;5034618;28;20487;-75
2022/12/02 00:55:53;;;;;;;7.65;3.92;;;;;;;8.04;97.26;101758.69;5001498;28;20030;-76
2022/12/02 00:58:19;;;;;;;5.85;4.10;;;;;;;8.21;97.51;101792.06;5001785;28;20049;-76
2022/12/02 01:00:45;;;;;;;5.57;3.70;;;;;;;8.19;97.21;101783.31;5017656;28;20432;-75
2022/12/02 01:03:11;;;;;;;5.80;3.30;;;;;;;8.17;97.27;101786.09;5017402;28;20052;-77
2022/12/02 01:05:36;;;;;;;6.60;3.20;;;;;;;8.18;97.34;101786.94;5050226;28;20388;-76
2022/12/02 01:08:02;;;;;;;7.50;3.22;;;;;;;8.17;97.20;101788.78;5034315;28;20474;-76
2022/12/02 01:10:28;;;;;;;4.88;3.00;;;;;;;8.15;97.22;101777.38;5001671;28;20045;-75
2022/12/02 01:12:53;;;;;;;5.60;2.90;;;;;;;8.17;97.33;101780.75;5017234;28;20130;-78
2022/12/02 01:15:19;;;;;;;7.03;3.63;;;;;;;8.05;97.32;101760.41;5001223;28;20029;-75
2022/12/02 01:17:45;;;;;;;5.88;3.13;;;;;;;8.12;97.72;101775.81;5033974;28;20471;-75
2022/12/02 01:20:11;;;;;;;5.35;3.03;;;;;;;8.12;97.83;101767.78;5001515;28;20076;-75
2022/12/02 01:22:37;;;;;;;6.03;2.90;;;;;;;8.08;98.04;101773.53;5017650;28;20383;-76
2022/12/02 01:25:03;;;;;;;6.90;2.92;;;;;;;8.00;98.16;101762.66;5034043;28;20037;-75
2022/12/02 01:27:29;;;;;;;5.93;3.05;;;;;;;8.01;98.70;101767.84;5000751;28;20040;-75
2022/12/02 01:29:54;;;;;;;3.08;2.40;;;;;;;8.01;98.66;101770.53;5001236;28;20390;-75
2022/12/02 01:32:22;;;;;;;4.63;2.58;;;;;;;7.95;98.93;101759.53;5017052;28;20030;-75
2022/12/02 01:34:49;;;;;;;4.93;2.28;;;;;;;8.05;99.09;101768.44;5017357;28;20413;-76
2022/12/02 01:37:15;;;;;;;6.68;2.30;;;;;;;8.09;99.31;101769.88;5000684;28;20033;-76
2022/12/02 01:39:40;;;;;;;4.82;2.10;;;;;;;8.06;98.76;101762.09;5000798;28;20083;-75
2022/12/02 01:42:07;;;;;;;7.57;2.67;;;;;;;8.12;99.15;101761.56;5050241;28;20033;-75
2022/12/02 01:44:33;;;;;;;3.75;2.17;;;;;;;8.08;98.61;101747.59;5001058;28;20029;-75
2022/12/02 01:46:58;;;;;;;4.05;2.20;;;;;;;8.13;98.88;101764.09;5033229;28;20087;-75
2022/12/02 01:49:24;;;;;;;2.60;2.00;;;;;;;8.14;98.87;101763.13;5033378;28;20029;-76
2022/12/02 01:51:50;;;;;;;5.50;2.35;;;;;;;8.13;98.57;101757.91;5000792;28;20467;-75
2022/12/02 01:54:16;;;;;;;5.47;2.28;;;;;;;8.04;98.26;101743.47;5033093;28;20128;-76
2022/12/02 01:56:42;;;;;;;5.90;2.60;;;;;;;8.21;98.45;101763.44;5017030;28;20030;-75
2022/12/02 01:59:13;;;;;;;3.58;2.22;;;;;;;8.23;98.08;101757.91;5016409;28;20021;-75
2022/12/02 02:01:39;;;;;;;4.30;2.25;;;;;;;8.23;97.54;101747.22;5033466;28;20107;-76
2022/12/02 02:04:05;;;;;;;3.17;1.55;;;;;;;8.24;97.18;101754.28;5016337;28;20087;-76
2022/12/02 02:06:34;;;;;;;6.28;2.42;;;;;;;8.18;96.98;101746.75;5033248;28;20037;-76
2022/12/02 02:08:59;;;;;;;6.22;1.98;;;;;;;8.26;97.29;101749.63;5016681;28;20029;-76
2022/12/02 02:11:25;;;;;;;2.90;1.80;;;;;;;8.25;97.15;101756.81;5000413;28;20033;-76
2022/12/02 02:13:52;;;;;;;5.82;2.30;;;;;;;8.26;97.04;101753.16;5016562;28;20026;-76
2022/12/02 02:16:17;;;;;;;4.38;1.65;;;;;;;8.31;96.91;101750.91;5032784;28;20041;-76
2022/12/02 02:18:43;;;;;;;3.95;1.85;;;;;;;8.33;96.33;101759.66;5048879;28;20037;-75
2022/12/02 02:21:22;;;;;;;4.15;2.38;;;;;;;8.29;96.06;101752.88;5000320;28;20061;-75
2022/12/02 02:23:48;;;;;;;3.83;2.17;;;;;;;8.30;95.94;101751.88;5001189;28;20060;-75
2022/12/02 02:26:14;;;;;;;2.30;1.58;;;;;;;8.35;95.84;101760.38;5016730;28;20507;-75
2022/12/02 02:28:39;;;;;;;6.95;2.22;;;;;;;8.36;95.93;101750.50;5032485;28;20041;-76
2022/12/02 02:31:05;;;;;;;5.63;2.20;;;;;;;8.32;95.89;101760.66;5033254;28;20484;-76
2022/12/02 02:33:32;;;;;;;3.15;1.70;;;;;;;8.24;95.81;101752.44;4999864;28;20467;-76
2022/12/02 02:35:59;;;;;;;5.07;1.80;;;;;;;8.31;96.04;101767.00;4999948;28;20388;-76
2022/12/02 02:38:26;;;;;;;3.65;2.50;;;;;;;8.28;96.35;101764.59;5000040;28;20123;-75
2022/12/02 02:40:52;;;;;;;3.83;1.70;;;;;;;8.29;96.79;101768.97;5015762;28;20037;-76
2022/12/02 02:43:20;;;;;;;2.78;1.98;;;;;;;8.31;97.06;101767.00;4999327;28;20028;-76
2022/12/02 02:45:48;;;;;;;5.22;2.30;;;;;;;8.31;97.31;101775.03;5000019;28;20037;-76
2022/12/02 02:48:15;;;;;;;4.07;2.17;;;;;;;8.30;97.39;101773.31;5032286;28;20118;-75
2022/12/02 02:50:42;;;;;;;4.38;1.73;;;;;;;8.18;97.70;101760.16;5032602;28;20038;-76
2022/12/02 02:53:08;;;;;;;4.18;1.90;;;;;;;8.27;98.01;101765.56;4999891;28;20029;-76
2022/12/02 02:55:34;;;;;;;2.97;1.65;;;;;;;8.28;97.92;101771.75;4999758;28;20033;-76
2022/12/02 02:58:27;;;;;;;3.85;2.13;;;;;;;8.30;98.08;101772.47;5031938;28;20080;-76
2022/12/02 03:00:56;;;;;;;;;;;;;;;8.27;98.41;101770.91;5015095;28;20042;-76
2022/12/02 03:03:25;;;;;;;2.65;1.38;;;;;;;8.24;98.55;101775.72;5048594;28;19956;-76
2022/12/02 03:05:53;;;;;;;4.05;2.03;;;;;;;8.22;99.22;101772.31;5015049;28;20033;-75
2022/12/02 03:08:20;;;;;;;4.95;1.92;;;;;;;8.17;99.70;101770.03;4999736;28;20032;-76
2022/12/02 03:10:45;;;;;;;4.88;2.22;;;;;;;8.15;99.87;101766.66;5032369;28;20030;-76
2022/12/02 03:13:11;;;;;;;4.55;2.20;;;;;;;8.16;100.00;101768.34;5015302;28;20029;-76
2022/12/02 03:15:37;;;;;;;4.13;1.92;;;;;;;8.15;100.00;101762.16;4999562;28;20034;-76
2022/12/02 03:18:03;;;;;;;4.07;1.90;;;;;;;8.17;100.00;101769.19;5015960;28;20047;-75
2022/12/02 03:20:28;;;;;;;4.20;1.90;;;;;;;8.17;100.00;101763.84;4999442;28;20087;-76
2022/12/02 03:22:54;;;;;;;3.58;1.52;;;;;;;8.13;100.00;101763.25;5015753;28;20379;-75
2022/12/02 03:25:20;;;;;;;3.00;1.30;;;;;;;8.17;100.00;101761.16;5015727;28;20041;-75
2022/12/02 03:27:46;;;;;;;2.85;1.80;;;;;;;8.18;100.00;101765.50;5016120;28;20037;-75
2022/12/02 03:30:12;;;;;;;4.13;1.77;;;;;;;8.18;100.00;101761.03;4999568;28;20471;-75
2022/12/02 03:32:38;;;;;;;2.28;1.20;;;;;;;8.22;100.00;101757.06;5031812;28;20052;-76
2022/12/02 03:35:04;;;;;;;4.32;2.15;;;;;;;8.25;100.00;101761.31;5015769;28;20447;-76
2022/12/02 03:37:30;;;;;;;1.23;0.95;;;;;;;8.24;100.00;101765.00;5015400;28;20547;-75
2022/12/02 03:39:56;;;;;;;2.97;1.17;;;;;;;8.15;100.00;101756.78;5031907;28;20196;-75
2022/12/02 03:42:21;;;;;;;4.75;1.80;;;;;;;8.19;100.00;101748.47;5015688;28;20033;-75
2022/12/02 03:44:48;;;;;;;5.90;1.40;;;;;;;8.21;100.00;101751.88;5015326;28;20045;-75
2022/12/02 03:47:14;;;;;;;4.05;1.80;;;;;;;8.20;100.00;101742.13;4999441;28;20072;-76
2022/12/02 03:49:43;;;;;;;2.78;1.65;;;;;;;8.21;100.00;101755.41;4999993;28;20029;-76
2022/12/02 03:52:09;;;;;;;2.10;1.15;;;;;;;8.21;100.00;101751.88;5032372;28;20037;-76
2022/12/02 03:54:35;;;;;;;3.65;1.90;;;;;;;8.19;100.00;101743.97;5032095;28;20090;-75
2022/12/02 03:57:04;;;;;;;1.90;1.50;;;;;;;8.18;100.00;101744.97;4998850;28;20036;-76
2022/12/02 03:59:30;;;;;;;2.42;1.70;;;;;;;8.17;100.00;101739.72;5015527;28;20498;-75
2022/12/02 04:01:56;;;;;;;3.40;1.73;;;;;;;8.15;100.00;101745.22;5015258;28;20030;-76
2022/12/02 04:04:22;;;;;;;5.80;2.10;;;;;;;8.19;100.00;101753.84;5015193;28;20037;-75
2022/12/02 04:06:47;;;;;;;4.25;1.98;;;;;;;8.21;100.00;101750.03;5015123;28;20037;-76
2022/12/02 04:09:13;;;;;;;3.63;1.60;;;;;;;8.23;100.00;101763.28;5031888;28;20116;-75
2022/12/02 04:11:39;;;;;;;3.28;1.80;;;;;;;8.19;100.00;101756.50;5015160;28;20044;-75
2022/12/02 04:14:04;;;;;;;5.82;1.90;;;;;;;8.01;100.00;101734.88;5031249;28;20063;-75
2022/12/02 04:16:30;;;;;;;4.28;1.73;;;;;;;8.09;100.00;101751.13;5015210;28;20123;-75
2022/12/02 04:18:56;;;;;;;3.60;2.08;;;;;;;8.12;100.00;101761.56;5001518;28;20033;-76
2022/12/02 04:21:23;;;;;;;5.03;1.50;;;;;;;8.06;100.00;101748.72;5035298;28;20064;-76
2022/12/02 04:23:51;;;;;;;4.97;2.05;;;;;;;8.08;100.00;101754.78;5018480;28;20036;-75
2022/12/02 04:26:18;;;;;;;3.75;2.05;;;;;;;7.93;100.00;101733.72;5002556;28;20037;-75
2022/12/02 04:28:43;;;;;;;5.85;2.30;;;;;;;8.02;100.00;101752.63;5034819;28;20025;-75
2022/12/02 04:31:09;;;;;;;5.25;2.50;;;;;;;7.95;100.00;101743.47;5035167;28;20033;-75
2022/12/02 04:33:35;;;;;;;5.95;2.42;;;;;;;7.93;100.00;101747.09;5002219;28;20036;-76
2022/12/02 04:36:01;;;;;;;4.15;2.35;;;;;;;7.92;100.00;101740.06;5002452;28;20399;-76
2022/12/02 04:38:27;;;;;;;4.90;2.47;;;;;;;7.93;100.00;101752.44;5001830;28;20037;-75
2022/12/02 04:40:52;;;;;;;9.68;4.05;;;;;;;7.91;100.00;101749.09;5034918;28;20443;-76
2022/12/02 04:43:18;;;;;;;5.90;2.83;;;;;;;7.90;100.00;101752.72;5001767;28;20026;-76
2022/12/02 04:45:44;;;;;;;6.82;2.53;;;;;;;7.85;100.00;101744.25;5034733;28;20041;-75
2022/12/02 04:48:12;;;;;;;4.63;2.20;;;;;;;7.67;100.00;101724.44;5034331;28;20039;-76
2022/12/02 04:50:38;;;;;;;4.63;3.17;;;;;;;7.84;100.00;101755.09;5018392;28;20116;-75
2022/12/02 04:53:04;;;;;;;4.32;2.13;;;;;;;7.76;100.00;101736.19;5002045;28;20441;-75
2022/12/02 04:55:29;;;;;;;5.55;2.80;;;;;;;7.82;100.00;101749.88;5034644;28;20091;-75
2022/12/02 04:57:55;;;;;;;5.78;2.08;;;;;;;7.79;100.00;101747.47;5034561;28;20033;-74
2022/12/02 05:00:21;;;;;;;4.20;2.35;;;;;;;7.68;100.00;101736.84;5001884;28;20033;-76
2022/12/02 05:02:47;;;;;;;4.25;2.17;;;;;;;7.77;100.00;101745.91;5001276;28;20056;-75
2022/12/02 05:05:12;;;;;;;3.25;1.95;;;;;;;7.74;100.00;101752.38;5051203;28;20446;-75
2022/12/02 05:07:38;;;;;;;7.68;2.08;;;;;;;7.71;100.00;101747.28;5001527;28;20040;-75
2022/12/02 05:10:05;;;;;;;5.35;2.35;;;;;;;7.63;100.00;101739.06;5017763;28;20029;-76
2022/12/02 05:12:30;;;;;;;3.22;1.83;;;;;;;7.61;100.00;101747.22;5017333;28;20116;-75
2022/12/02 05:14:56;;;;;;;4.45;2.00;;;;;;;7.60;100.00;101742.03;5001506;28;20129;-75
2022/12/02 05:17:21;;;;;;;8.05;1.88;;;;;;;7.55;100.00;101745.09;5033583;28;20037;-75
2022/12/02 05:19:48;;;;;;;4.25;1.88;;;;;;;7.52;100.00;101749.88;5034170;28;20076;-76
2022/12/02 05:22:14;;;;;;;4.75;1.73;;;;;;;7.35;100.00;101740.59;5017447;28;20073;-76
2022/12/02 05:24:40;;;;;;;5.30;2.00;;;;;;;7.21;100.00;101745.28;5033934;28;20072;-76
2022/12/02 05:27:06;;;;;;;5.95;2.00;;;;;;;7.06;100.00;101751.91;5001050;28;20029;-75
2022/12/02 05:29:31;;;;;;;3.38;1.90;;;;;;;6.81;100.00;101740.59;5000880;28;20029;-75
2022/12/02 05:31:57;;;;;;;4.60;2.17;;;;;;;6.77;100.00;101746.31;5034198;28;20128;-75
2022/12/02 05:34:22;;;;;;;4.75;2.40;;;;;;;6.70;100.00;101746.00;5017448;28;20032;-76
2022/12/02 05:36:48;;;;;;;6.60;2.90;;;;;;;6.65;100.00;101742.00;5001067;28;20375;-75
2022/12/02 05:39:14;;;;;;;4.47;2.58;;;;;;;6.68;100.00;101752.44;5001094;28;20076;-75
2022/12/02 05:41:40;;;;;;;7.68;3.53;;;;;;;6.57;100.00;101748.81;5016919;28;20049;-76
2022/12/02 05:44:24;;;;;;;6.65;3.22;;;;;;;6.40;100.00;101752.00;5017282;28;20075;-75
2022/12/02 05:46:50;;;;;;;3.95;2.15;;;;;;;6.26;100.00;101741.59;5033049;28;20041;-75
2022/12/02 05:49:19;;;;;;;4.38;3.22;;;;;;;6.19;100.00;101751.91;5049415;28;20033;-75
2022/12/02 05:51:52;;;;;;;9.52;3.50;;;;;;;5.94;100.00;101723.66;5033532;28;20113;-75
2022/12/02 05:54:19;;;;;;;6.65;2.55;;;;;;;5.85;100.00;101737.72;5016974;28;20128;-75
2022/12/02 05:56:45;;;;;;;6.43;2.40;;;;;;;5.76;100.00;101739.28;5000859;28;20041;-76
2022/12/02 05:59:16;;;;;;;4.85;2.55;;;;;;;5.72;100.00;101749.34;5000138;28;20033;-75
2022/12/02 06:01:46;;;;;;;6.60;2.47;;;;;;;5.67;100.00;101751.53;5017101;28;20030;-76
2022/12/02 06:04:21;;;;;;;3.53;2.00;;;;;;;5.68;100.00;101744.34;5000434;28;20041;-75
2022/12/02 06:06:47;;;;;;;4.45;1.98;;;;;;;5.73;100.00;101751.03;5032882;28;20033;-75
2022/12/02 06:09:23;;;;;;;5.05;2.28;;;;;;;5.71;100.00;101752.13;5016824;28;20099;-75
2022/12/02 06:11:48;;;;;;;7.63;4.00;;;;;;;5.58;100.00;101744.22;5032900;28;20388;-75
2022/12/02 06:14:17;;;;;;;8.57;2.80;;;;;;;5.54;100.00;101745.44;5000445;28;20026;-76
2022/12/02 06:16:46;;;;;;;6.28;2.35;;;;;;;5.61;100.00;101749.34;5016803;28;20026;-76
2022/12/02 06:19:24;;;;;;;4.45;2.30;;;;;;;5.68;100.00;101752.38;5033116;28;20126;-75
2022/12/02 06:21:51;;;;;;;4.60;2.25;;;;;;;5.69;100.00;101748.75;5016826;28;20037;-75
2022/12/02 06:24:25;;;;;;;7.40;2.65;;;;;;;5.71;100.00;101752.97;4999857;28;20025;-75
2022/12/02 06:26:52;;;;;;;5.03;2.30;;;;;;;5.78;100.00;101747.16;5016330;28;20387;-75
2022/12/02 06:29:18;;;;;;;5.32;2.63;;;;;;;5.93;100.00;101759.31;5000159;28;20030;-75
2022/12/02 06:31:44;;;;;;;5.18;2.67;;;;;;;6.06;100.00;101752.06;5000414;28;20038;-76
2022/12/02 06:34:28;;;;;;;4.80;2.60;;;;;;;6.25;100.00;101750.59;5032416;28;20394;-75
2022/12/02 06:36:57;;;;;;;7.53;2.78;;;;;;;6.34;100.00;101757.84;5016849;28;20033;-75
2022/12/02 06:39:23;;;;;;;5.72;2.67;;;;;;;6.39;100.00;101753.81;5000513;28;20033;-76
2022/12/02 06:41:49;;;;;;;5.53;2.30;;;;;;;6.42;100.00;101754.56;4999333;28;20037;-75
2022/12/02 06:47:31;;;;;;;8.32;3.05;;;;;;;6.49;100.00;101758.44;5018757;28;20155;-75
2022/12/02 06:50:08;;;;;;;5.13;3.05;;;;;;;6.51;100.00;101768.03;5016389;28;20021;-75
2022/12/02 06:52:41;;;;;;;4.18;2.28;;;;;;;6.54;100.00;101773.13;5015837;28;20037;-75
2022/12/02 06:55:33;;;;;;;5.05;2.60;;;;;;;6.59;100.00;101778.94;5032434;28;20048;-76
2022/12/02 06:58:15;;;;;;;;;;;;;;;6.61;100.00;101784.16;5013545;28;20135;-76
2022/12/02 07:00:42;;;;;;;4.10;2.22;;;;;;;6.60;100.00;101785.97;5032535;28;19908;-76
2022/12/02 07:03:29;;;;;;;4.32;2.38;;;;;;;6.60;100.00;101794.00;5032441;28;20037;-75
2022/12/02 07:06:08;;;;;;;5.70;2.45;;;;;;;6.55;100.00;101788.16;5016509;28;20045;-75
2022/12/02 07:08:34;;;;;;;7.30;2.30;;;;;;;6.45;100.00;101792.56;5048996;28;20051;-76
2022/12/02 07:11:00;;;;;;;6.95;2.70;;;;;;;6.35;100.00;101789.78;5032041;28;20034;-75
2022/12/02 07:13:26;;;;;;;7.45;2.38;;;;;;;6.29;100.00;101794.75;4999388;28;20383;-75
2022/12/02 07:15:52;;;;;;;4.07;2.55;;;;;;;6.21;100.00;101787.34;4999309;28;20171;-76
2022/12/02 07:18:20;;;;;;;5.13;2.55;;;;;;;6.22;100.00;101801.56;4999692;28;20033;-75
2022/12/02 07:20:46;;;;;;;5.57;2.42;;;;;;;6.05;100.00;101801.06;5015700;28;20083;-75
2022/12/02 07:23:26;;;;;;;5.97;3.00;;;;;;;6.09;100.00;101809.72;4999010;28;20444;-76
2022/12/02 07:25:58;;;;;;;5.13;2.28;;;;;;;6.10;100.00;101804.22;5032137;28;20033;-76
2022/12/02 07:28:31;;;;;;;6.72;3.17;;;;;;;6.16;100.00;101805.56;4999815;28;20099;-75
2022/12/02 07:31:11;;;;;;;3.85;2.50;;;;;;;6.19;100.00;101804.47;4999406;28;20051;-76
2022/12/02 07:33:37;;;;;;;4.00;2.50;;;;;;;6.23;100.00;101806.78;5031083;28;20037;-75
2022/12/02 07:36:03;;;;;;;6.45;2.50;;;;;;;6.22;100.00;101807.78;4996929;28;20040;-75
2022/12/02 07:38:29;;;;;;;13.68;5.45;;;;;;;6.24;100.00;101812.97;5013322;28;20112;-76
2022/12/02 07:40:54;;;;;;;15.68;6.90;;;;;;;6.11;100.00;101794.41;5015591;28;20496;-75
2022/12/02 07:43:20;;;;;;;7.35;5.00;;;;;;;6.32;100.00;101822.06;4999008;28;20125;-76
2022/12/02 07:45:46;;;;;;;4.93;3.08;;;;;;;6.37;100.00;101813.69;5031877;28;20482;-75
2022/12/02 07:48:11;;;;;;;6.15;3.05;;;;;;;6.39;100.00;101817.94;4999175;28;20038;-75
2022/12/02 07:50:37;;;;;;;6.63;3.90;;;;;;;6.47;100.00;101824.50;4998704;28;20459;-75
2022/12/02 07:53:03;;;;;;;6.45;3.08;;;;;;;6.52;100.00;101827.66;5002130;28;20032;-75
2022/12/02 07:55:29;;;;;;;5.38;2.65;;;;;;;6.57;100.00;101831.66;5003108;28;20034;-75
2022/12/02 07:57:55;;;;;;;5.70;2.97;;;;;;;6.61;100.00;101826.91;5035932;28;20037;-76
2022/12/02 08:00:21;;;;;;;8.90;3.15;;;;;;;6.60;100.00;101828.72;5002771;28;20037;-76
2022/12/02 08:02:47;;;;;;;5.45;2.47;;;;;;;6.63;100.00;101837.47;5018672;28;20025;-76
2022/12/02 08:05:12;;;;;;;6.63;2.70;;;;;;;6.67;100.00;101836.25;5019164;28;20026;-75
2022/12/02 08:07:38;;;;;;;6.90;2.67;;;;;;;6.70;100.00;101839.53;5018975;28;20494;-76
2022/12/02 08:10:05;;;;;;;6.63;2.78;;;;;;;6.73;100.00;101844.63;5035342;28;20033;-75
2022/12/02 08:12:31;;;;;;;4.70;2.53;;;;;;;6.73;100.00;101841.97;5034822;28;20033;-75
2022/12/02 08:14:57;;;;;;;4.03;2.10;;;;;;;6.73;100.00;101836.63;5018336;28;20083;-75
2022/12/02 08:17:22;;;;;;;3.92;2.58;;;;;;;6.74;100.00;101842.81;5034931;28;20369;-75
2022/12/02 08:19:48;;;;;;;5.68;2.53;;;;;;;6.79;100.00;101849.47;5036136;28;20529;-75
2022/12/02 08:22:14;;;;;;;4.85;2.42;;;;;;;6.80;100.00;101858.34;5001771;28;20422;-75
2022/12/02 08:24:40;;;;;;;8.80;3.10;;;;;;;6.82;100.00;101856.38;5002033;28;20394;-75
2022/12/02 08:27:05;;;;;;;5.05;2.53;;;;;;;6.84;100.00;101857.13;5002426;28;20045;-75
2022/12/02 08:29:31;;;;;;;4.05;2.60;;;;;;;6.87;100.00;101859.53;5002031;28;20037;-75
2022/12/02 08:31:57;;;;;;;7.22;4.00;;;;;;;6.86;100.00;101857.84;5018158;28;20052;-75
2022/12/02 08:34:22;;;;;;;6.55;3.40;;;;;;;6.94;100.00;101858.09;5002255;28;20056;-75
2022/12/02 08:36:50;;;;;;;7.60;3.80;;;;;;;6.96;100.00;101864.16;5018099;28;20029;-76
2022/12/02 08:39:16;;;;;;;6.88;3.85;;;;;;;6.95;100.00;101862.44;5034183;28;20034;-76
2022/12/02 08:41:42;;;;;;;6.85;3.50;;;;;;;6.95;100.00;101861.59;5017971;28;20048;-76
2022/12/02 08:44:07;;;;;;;7.38;3.90;;;;;;;7.00;100.00;101872.75;5001688;28;20087;-76
2022/12/02 08:46:33;;;;;;;6.38;3.20;;;;;;;7.04;100.00;101872.41;5018062;28;20034;-75
2022/12/02 08:48:59;;;;;;;5.82;3.03;;;;;;;7.07;100.00;101867.78;5034593;28;20045;-75
2022/12/02 08:51:25;;;;;;;5.72;2.97;;;;;;;7.06;100.00;101869.59;5001564;28;20159;-75
2022/12/02 08:53:52;;;;;;;5.30;2.47;;;;;;;7.14;100.00;101879.66;5017696;28;20458;-75
2022/12/02 08:56:17;;;;;;;5.80;2.92;;;;;;;7.18;100.00;101878.44;5034091;28;20486;-75
2022/12/02 08:58:43;;;;;;;6.07;2.63;;;;;;;7.15;100.00;101865.31;5001834;28;20037;-75
2022/12/02 09:01:09;;;;;;;4.28;2.63;;;;;;;7.26;100.00;101876.81;5018014;28;20124;-76
2022/12/02 09:03:34;;;;;;;5.05;2.55;;;;;;;7.28;100.00;101876.72;5017113;28;20036;-75
2022/12/02 09:06:00;;;;;;;5.25;2.53;;;;;;;7.30;100.00;101871.22;5001581;28;20446;-75
2022/12/02 09:08:26;;;;;;;3.97;2.50;;;;;;;7.30;100.00;101872.06;5017540;28;20038;-75
2022/12/02 09:10:54;;;;;;;6.15;3.00;;;;;;;7.31;100.00;101879.13;5051033;28;20045;-76
2022/12/02 09:13:20;;;;;;;5.38;3.28;;;;;;;7.35;100.00;101869.00;5001338;28;20037;-76
2022/12/02 09:15:46;;;;;;;10.27;3.20;;;;;;;7.42;100.00;101876.41;5017653;28;20033;-76
2022/12/02 09:18:11;;;;;;;7.22;3.33;;;;;;;7.47;100.00;101879.53;5034423;28;20030;-76
2022/12/02 09:20:37;;;;;;;5.55;2.97;;;;;;;7.53;100.00;101880.00;5033732;28;20052;-75
2022/12/02 09:23:03;;;;;;;4.53;2.92;;;;;;;7.58;100.00;101885.81;5000962;28;20025;-75
2022/12/02 09:25:28;;;;;;;5.55;2.65;;;;;;;7.58;100.00;101880.47;5017296;28;20108;-76
2022/12/02 09:27:54;;;;;;;5.75;2.70;;;;;;;7.36;100.00;101844.81;5017592;28;20041;-76
2022/12/02 09:30:20;;;;;;;5.25;2.97;;;;;;;7.71;100.00;101897.22;5016833;28;20541;-78
2022/12/02 09:32:46;;;;;;;5.22;2.97;;;;;;;7.78;100.00;101898.41;5000616;28;20041;-79
2022/12/02 09:35:12;;;;;;;7.53;2.97;;;;;;;7.85;100.00;101904.91;5017409;28;20041;-79
2022/12/02 09:37:37;;;;;;;7.47;3.47;;;;;;;7.89;100.00;101901.00;5034011;28;20087;-79
2022/12/02 09:40:04;;;;;;;10.27;5.93;;;;;;;8.02;100.00;101916.00;5017082;28;20045;-78
2022/12/02 09:42:30;;;;;;;14.15;6.43;;;;;;;8.08;100.00;101913.66;5033074;28;20029;-77
2022/12/02 09:44:56;;;;;;;12.45;6.10;;;;;;;8.17;100.00;101917.38;5033320;28;20048;-77
2022/12/02 09:47:22;;;;;;;5.57;3.05;;;;;;;8.26;100.00;101908.56;5001065;28;20128;-77
2022/12/02 09:49:48;;;;;;;5.82;3.28;;;;;;;8.36;100.00;101912.16;5001023;28;20523;-77
2022/12/02 09:52:17;;;;;;;6.13;3.15;;;;;;;8.48;100.00;101912.09;5049789;28;20471;-77
2022/12/02 09:54:43;;;;;;;6.00;4.00;;;;;;;8.55;100.00;101916.78;5000780;28;20126;-77
2022/12/02 09:57:12;;;;;;;6.38;3.92;;;;;;;8.65;100.00;101914.13;5032873;28;20056;-77
2022/12/02 09:59:38;;;;;;;10.35;4.10;;;;;;;8.72;100.00;101904.56;4999884;28;20033;-78
2022/12/02 10:02:04;;;;;;;11.38;5.38;;;;;;;8.87;100.00;101906.91;5033056;28;20037;-76
2022/12/02 10:04:30;;;;;;;10.20;5.20;;;;;;;8.97;100.00;101891.66;5033306;28;20041;-77
2022/12/02 10:06:55;;;;;;;8.60;4.68;;;;;;;9.36;99.66;101915.88;5033306;28;20038;-78
2022/12/02 10:09:28;;;;;;;9.43;4.65;;;;;;;9.58;97.80;101922.81;5049539;28;20434;-77
2022/12/02 10:11:55;;;;;;;13.07;4.63;;;;;;;10.04;94.21;101913.19;5016279;28;20041;-77
2022/12/02 10:14:21;;;;;;;6.43;3.53;;;;;;;10.17;93.73;101911.03;5000179;28;20040;-76
2022/12/02 10:16:46;;;;;;;8.48;4.43;;;;;;;11.29;87.71;101916.34;5032812;28;20513;-77
2022/12/02 10:19:15;;;;;;;8.57;4.82;;;;;;;10.76;87.78;101909.00;5033162;28;20068;-77
2022/12/02 10:21:41;;;;;;;9.45;4.97;;;;;;;10.39;89.07;101928.69;5016228;28;20033;-76
2022/12/02 10:24:08;;;;;;;9.95;4.90;;;;;;;10.10;91.08;101928.72;5000028;28;20490;-77
2022/12/02 10:26:45;;;;;;;9.88;5.60;;;;;;;10.01;92.61;101937.66;5017043;28;20478;-78
2022/12/02 10:29:15;;;;;;;9.98;5.25;;;;;;;9.95;92.20;101925.66;5016756;28;20033;-77
2022/12/02 10:31:54;;;;;;;10.60;6.78;;;;;;;10.02;92.73;101945.56;5016380;28;20040;-76
2022/12/02 10:34:21;;;;;;;6.57;4.38;;;;;;;10.07;92.92;101939.75;5033114;28;20426;-77
2022/12/02 10:36:46;;;;;;;4.85;3.05;;;;;;;10.11;92.78;101935.81;5000180;28;20033;-77
2022/12/02 10:39:23;;;;;;;11.18;4.90;;;;;;;10.17;92.85;101940.59;4999869;28;20099;-77
2022/12/02 10:42:21;;;;;;;7.72;3.03;;;;;;;10.21;92.71;101947.38;5032633;28;20037;-77
2022/12/02 10:45:09;;;;;;;4.93;3.05;;;;;;;10.16;93.19;101949.66;5012381;28;20063;-77
2022/12/02 10:47:37;;;;;;;5.45;3.03;;;;;;;10.12;93.49;101946.41;5048824;28;20128;-77
2022/12/02 10:50:31;;;;;;;7.60;4.63;;;;;;;10.04;93.59;101945.44;5016609;28;20042;-77
2022/12/02 10:52:58;;;;;;;7.70;3.45;;;;;;;9.94;93.70;101945.44;4999733;28;20475;-78
2022/12/02 10:55:25;;;;;;;5.45;2.85;;;;;;;9.89;94.13;101945.84;4999922;28;20034;-78
2022/12/02 10:57:51;;;;;;;5.63;3.05;;;;;;;9.89;94.31;101943.16;5016129;28;20136;-77
2022/12/02 11:00:22;;;;;;;6.70;2.88;;;;;;;9.89;94.29;101945.00;4999786;28;20129;-77
2022/12/02 11:02:54;;;;;;;7.28;3.90;;;;;;;9.88;94.75;101957.59;4999559;28;20026;-77
2022/12/02 11:05:26;;;;;;;7.10;4.53;;;;;;;9.93;95.33;101946.44;4999976;28;20060;-76
2022/12/02 11:08:01;;;;;;;13.55;6.43;;;;;;;9.98;95.62;101946.00;5015972;28;20079;-77
2022/12/02 11:10:36;;;;;;;6.65;3.35;;;;;;;10.05;95.20;101953.31;5015964;28;20094;-76
2022/12/02 11:13:25;;;;;;;4.05;2.85;;;;;;;10.11;94.73;101944.72;5048735;28;20168;-77
2022/12/02 11:15:52;;;;;;;8.60;3.88;;;;;;;10.31;93.37;101942.00;5005370;28;20103;-77
2022/12/02 11:18:24;;;;;;;7.93;3.58;;;;;;;11.06;89.13;101940.19;4999507;28;20135;-77
2022/12/02 11:20:53;;;;;;;6.60;4.05;;;;;;;11.52;86.59;101941.00;5032936;28;20478;-77
2022/12/02 11:23:26;;;;;;;5.82;2.53;;;;;;;11.80;84.08;101936.41;5032020;28;20025;-78
2022/12/02 11:26:05;;;;;;;10.85;2.92;;;;;;;11.67;83.87;101933.25;5032038;28;20034;-77
2022/12/02 11:28:33;;;;;;;4.28;2.38;;;;;;;11.50;84.16;101947.53;5003185;28;20076;-77
2022/12/02 11:31:11;;;;;;;7.70;2.92;;;;;;;11.24;85.70;101950.97;5003368;28;20121;-77
2022/12/02 11:33:42;;;;;;;6.70;2.72;;;;;;;11.10;86.14;101955.00;5019711;28;20095;-77
2022/12/02 11:36:08;;;;;;;4.72;3.20;;;;;;;11.11;85.64;101945.94;5035864;28;20037;-77
2022/12/02 11:38:45;;;;;;;7.90;4.22;;;;;;;11.22;85.59;101951.13;5036711;28;20394;-77